Time;durP1;ratioP1;P1;durP2;ratioP2;P2;SDS_P1;SDS_P2;PMS_P1;PMS_P2;Temp;Humidity;BMP_temperature;BMP_pressure;BME280_temperature;BME280_humidity;BME280_pressure;Samples;Min_cycle;Max_cycle;Signal;HPM_P1;HPM_P2
2023/02/21 02:15:28;;;;;;;24.80;10.70;;;;;;;;;;5072202;28;20032;-50
2023/02/21 02:17:54;;;;;;;29.48;13.32;;;;;;;;;;5072025;28;20020;-50
2023/02/21 02:20:23;;;;;;;34.95;11.70;;;;;;;;;;5072068;28;20025;-50
2023/02/21 02:23:00;;;;;;;25.60;12.20;;;;;;;;;;5073329;28;20374;-50
2023/02/21 02:25:42;;;;;;;31.20;11.70;;;;;;;;;;5073277;28;20063;-50
2023/02/21 02:28:07;;;;;;;19.88;9.77;;;;;;;;;;5071874;28;20075;-50
2023/02/21 02:30:42;;;;;;;28.90;12.90;;;;;;;;;;5071882;28;20060;-50
2023/02/21 02:33:21;;;;;;;29.73;11.32;;;;;;;;;;5071590;28;20518;-50
2023/02/21 02:36:05;;;;;;;19.13;10.68;;;;;;;;;;5071726;28;20082;-50
2023/02/21 02:38:45;;;;;;;29.48;10.88;;;;;;;;;;5071767;28;20123;-50
2023/02/21 02:41:11;;;;;;;22.75;10.85;;;;;;;;;;5072841;28;20391;-50
2023/02/21 02:43:43;;;;;;;25.42;11.70;;;;;;;;;;5071664;28;20028;-51
2023/02/21 02:46:19;;;;;;;19.95;10.20;;;;;;;;;;5071578;28;20082;-50
2023/02/21 02:48:59;;;;;;;28.45;11.98;;;;;;;;;;5071335;28;20052;-51
2023/02/21 02:51:25;;;;;;;31.08;11.00;;;;;;;;;;5071297;28;20032;-50
2023/02/21 02:53:52;;;;;;;24.23;11.32;;;;;;;;;;5071355;28;20028;-50
2023/02/21 02:56:22;;;;;;;20.73;10.38;;;;;;;;;;5054958;28;20020;-50
2023/02/21 02:58:50;;;;;;;35.88;10.82;;;;;;;;;;5071197;28;20078;-50
2023/02/21 03:01:19;;;;;;;26.13;10.25;;;;;;;;;;5072517;28;20028;-50
2023/02/21 03:03:51;;;;;;;27.33;10.90;;;;;;;;;;5071163;28;20032;-51
2023/02/21 03:06:23;;;;;;;23.25;10.07;;;;;;;;;;5072533;28;20513;-50
2023/02/21 03:09:01;;;;;;;18.38;10.05;;;;;;;;;;5071213;28;20047;-50
2023/02/21 03:11:29;;;;;;;21.35;12.45;;;;;;;;;;5071079;28;20178;-50
2023/02/21 03:14:08;;;;;;;19.85;10.35;;;;;;;;;;5070911;28;20402;-50
2023/02/21 03:16:37;;;;;;;21.10;10.90;;;;;;;;;;5071017;28;20052;-50
2023/02/21 03:19:07;;;;;;;30.05;11.23;;;;;;;;;;5072473;28;20367;-50
2023/02/21 03:21:39;;;;;;;21.02;10.00;;;;;;;;;;5070825;28;20037;-50
2023/02/21 03:24:07;;;;;;;24.52;9.60;;;;;;;;;;5070332;28;20110;-50
2023/02/21 03:26:34;;;;;;;18.30;9.48;;;;;;;;;;5072172;28;20070;-50
2023/02/21 03:29:15;;;;;;;24.17;10.77;;;;;;;;;;5070780;28;20524;-50
2023/02/21 03:31:43;;;;;;;22.85;9.77;;;;;;;;;;5070640;28;20032;-50
2023/02/21 03:34:09;;;;;;;31.13;12.77;;;;;;;;;;5070515;28;20049;-50
2023/02/21 03:36:36;;;;;;;20.20;11.13;;;;;;;;;;5070664;28;20028;-50
2023/02/21 03:39:02;;;;;;;23.88;10.38;;;;;;;;;;5070521;28;20028;-50
2023/02/21 03:41:27;;;;;;;28.00;9.80;;;;;;;;;;5071844;28;20372;-50
2023/02/21 03:43:53;;;;;;;21.70;11.23;;;;;;;;;;5071771;28;20066;-50
2023/02/21 03:46:19;;;;;;;26.63;11.05;;;;;;;;;;5070462;28;20031;-50
2023/02/21 03:48:44;;;;;;;26.58;11.23;;;;;;;;;;5070320;28;20067;-50
2023/02/21 03:51:17;;;;;;;29.38;12.15;;;;;;;;;;5070356;28;20016;-50
2023/02/21 03:53:43;;;;;;;20.67;11.52;;;;;;;;;;5053643;28;20123;-50
2023/02/21 03:56:10;;;;;;;26.90;9.70;;;;;;;;;;5070374;28;20453;-50
2023/02/21 03:59:02;;;;;;;24.77;10.70;;;;;;;;;;5067592;28;20036;-50
2023/02/21 04:01:27;;;;;;;24.33;11.70;;;;;;;;;;5070257;28;20039;-50
2023/02/21 04:03:53;;;;;;;21.55;10.35;;;;;;;;;;5070195;28;20031;-51
2023/02/21 04:06:20;;;;;;;27.38;10.90;;;;;;;;;;5053838;28;20094;-50
2023/02/21 04:08:46;;;;;;;23.98;12.15;;;;;;;;;;5070005;28;20036;-50
2023/02/21 04:11:11;;;;;;;26.60;10.95;;;;;;;;;;5070101;28;20119;-50
2023/02/21 04:13:40;;;;;;;30.00;12.70;;;;;;;;;;5071668;28;20070;-50
2023/02/21 04:16:05;;;;;;;31.40;12.80;;;;;;;;;;5071382;28;20028;-50
2023/02/21 04:18:34;;;;;;;23.40;9.10;;;;;;;;;;5070112;28;20475;-50
2023/02/21 04:21:00;;;;;;;28.33;11.73;;;;;;;;;;5069935;28;20035;-50
2023/02/21 04:23:26;;;;;;;21.52;9.40;;;;;;;;;;5070026;28;20012;-50
2023/02/21 04:25:51;;;;;;;26.02;9.32;;;;;;;;;;5069944;28;20035;-51
2023/02/21 04:28:24;;;;;;;33.28;12.05;;;;;;;;;;5069932;28;20029;-50
2023/02/21 04:30:50;;;;;;;24.77;10.27;;;;;;;;;;5071081;28;20051;-50
2023/02/21 04:33:15;;;;;;;22.67;9.85;;;;;;;;;;5069725;28;20044;-50
2023/02/21 04:35:41;;;;;;;25.25;10.88;;;;;;;;;;5073825;28;20520;-50
2023/02/21 04:38:14;;;;;;;21.98;10.10;;;;;;;;;;5074006;28;20020;-51
2023/02/21 04:40:40;;;;;;;21.08;10.27;;;;;;;;;;5073879;28;20021;-50
2023/02/21 04:43:05;;;;;;;27.83;10.43;;;;;;;;;;5073899;28;20383;-50
2023/02/21 04:45:30;;;;;;;22.90;10.43;;;;;;;;;;5074099;28;20036;-50
2023/02/21 04:47:56;;;;;;;23.85;10.45;;;;;;;;;;5073704;28;20041;-50
2023/02/21 04:50:21;;;;;;;23.58;10.63;;;;;;;;;;5073724;28;20082;-50
2023/02/21 04:52:47;;;;;;;29.70;11.60;;;;;;;;;;5073764;28;20021;-50
2023/02/21 04:55:13;;;;;;;31.88;12.52;;;;;;;;;;5075009;28;20033;-50
2023/02/21 04:57:38;;;;;;;30.20;11.52;;;;;;;;;;5074857;28;20063;-50
2023/02/21 05:00:06;;;;;;;25.33;11.35;;;;;;;;;;5075056;28;20082;-50
2023/02/21 05:02:31;;;;;;;26.48;11.52;;;;;;;;;;5074870;28;20052;-50
2023/02/21 05:04:57;;;;;;;28.10;12.32;;;;;;;;;;5074898;28;20071;-50
2023/02/21 05:07:22;;;;;;;32.20;12.27;;;;;;;;;;5073404;28;20111;-50
2023/02/21 05:09:48;;;;;;;22.95;12.13;;;;;;;;;;5074565;28;20033;-50
2023/02/21 05:12:14;;;;;;;31.30;11.18;;;;;;;;;;5074928;28;20016;-50
2023/02/21 05:14:40;;;;;;;23.98;10.55;;;;;;;;;;5074699;28;20398;-50
2023/02/21 05:17:06;;;;;;;24.38;13.38;;;;;;;;;;5074583;28;20017;-50
2023/02/21 05:19:32;;;;;;;28.13;10.82;;;;;;;;;;5074622;28;20035;-50
2023/02/21 05:21:59;;;;;;;28.35;12.75;;;;;;;;;;5074625;28;20016;-50
2023/02/21 05:24:25;;;;;;;29.38;13.68;;;;;;;;;;5074438;28;20044;-50
2023/02/21 05:26:51;;;;;;;26.75;11.45;;;;;;;;;;5074293;28;20027;-50
2023/02/21 05:29:17;;;;;;;32.08;12.23;;;;;;;;;;5074630;28;20036;-50
2023/02/21 05:31:43;;;;;;;29.67;11.93;;;;;;;;;;5074482;28;20410;-51
2023/02/21 05:34:09;;;;;;;25.48;11.68;;;;;;;;;;5074106;28;20122;-50
2023/02/21 05:36:35;;;;;;;29.40;11.95;;;;;;;;;;5074286;28;20074;-50
2023/02/21 05:39:00;;;;;;;25.67;12.57;;;;;;;;;;5074389;28;20036;-50
2023/02/21 05:41:26;;;;;;;25.65;11.50;;;;;;;;;;5073994;28;20455;-50
2023/02/21 05:43:52;;;;;;;26.80;11.82;;;;;;;;;;5074256;28;20035;-50
2023/02/21 05:46:25;;;;;;;28.00;11.95;;;;;;;;;;5073433;28;20744;-49
2023/02/21 05:48:51;;;;;;;25.08;11.25;;;;;;;;;;5074126;28;20098;-50
2023/02/21 05:51:17;;;;;;;27.45;11.15;;;;;;;;;;5074209;28;20016;-50
2023/02/21 05:53:43;;;;;;;26.33;12.63;;;;;;;;;;5074069;28;20586;-50
2023/02/21 05:56:08;;;;;;;27.55;14.13;;;;;;;;;;5074197;28;20078;-50
2023/02/21 05:58:34;;;;;;;26.48;11.73;;;;;;;;;;5072436;28;20032;-51
2023/02/21 06:01:00;;;;;;;26.63;12.77;;;;;;;;;;5073650;28;20032;-50
2023/02/21 06:03:25;;;;;;;33.95;12.82;;;;;;;;;;5072583;28;20039;-50
2023/02/21 06:05:51;;;;;;;29.70;12.32;;;;;;;;;;5072340;28;20024;-50
2023/02/21 06:08:16;;;;;;;25.40;11.57;;;;;;;;;;5073620;28;20028;-50
2023/02/21 06:10:42;;;;;;;28.77;13.75;;;;;;;;;;5073419;28;20027;-50
2023/02/21 06:13:07;;;;;;;22.83;11.32;;;;;;;;;;5073507;28;20045;-49
2023/02/21 06:15:33;;;;;;;27.65;12.73;;;;;;;;;;5073484;28;20025;-50
2023/02/21 06:17:58;;;;;;;28.27;12.15;;;;;;;;;;5073291;28;20037;-50
2023/02/21 06:20:23;;;;;;;27.77;12.13;;;;;;;;;;5073368;28;20032;-50
2023/02/21 06:22:49;;;;;;;36.65;12.75;;;;;;;;;;5073268;28;20028;-50
2023/02/21 06:25:15;;;;;;;29.63;13.80;;;;;;;;;;5073315;28;20066;-50
2023/02/21 06:27:42;;;;;;;26.65;11.98;;;;;;;;;;5073264;28;20037;-50
2023/02/21 06:30:08;;;;;;;32.25;13.90;;;;;;;;;;5073078;28;20423;-50
2023/02/21 06:32:34;;;;;;;31.08;12.00;;;;;;;;;;5073045;28;20032;-51
2023/02/21 06:35:00;;;;;;;33.00;11.65;;;;;;;;;;5073067;28;20107;-50
2023/02/21 06:37:26;;;;;;;36.97;13.65;;;;;;;;;;5071638;28;20539;-50
2023/02/21 06:39:52;;;;;;;35.40;12.27;;;;;;;;;;5072875;28;20473;-50
2023/02/21 06:42:18;;;;;;;40.90;14.20;;;;;;;;;;5072877;28;20029;-50
2023/02/21 06:44:44;;;;;;;30.85;13.15;;;;;;;;;;5054945;28;20031;-51
2023/02/21 06:47:09;;;;;;;29.55;11.93;;;;;;;;;;5071502;28;20032;-50
2023/02/21 06:49:35;;;;;;;35.05;13.07;;;;;;;;;;5072791;28;20029;-50
2023/02/21 06:52:01;;;;;;;26.45;13.32;;;;;;;;;;5072771;28;20103;-50
2023/02/21 06:54:28;;;;;;;36.33;13.48;;;;;;;;;;5072688;28;20108;-50
2023/02/21 06:56:54;;;;;;;31.52;12.43;;;;;;;;;;5072252;28;20033;-50
2023/02/21 06:59:20;;;;;;;30.98;13.57;;;;;;;;;;5072403;28;20425;-50
2023/02/21 07:01:45;;;;;;;26.02;12.65;;;;;;;;;;5072680;28;20060;-50
2023/02/21 07:04:10;;;;;;;32.35;11.60;;;;;;;;;;5072553;28;20531;-50
2023/02/21 07:06:36;;;;;;;35.20;15.45;;;;;;;;;;5072444;28;20021;-50
2023/02/21 07:09:02;;;;;;;28.67;13.25;;;;;;;;;;5072532;28;20043;-50
2023/02/21 07:11:29;;;;;;;33.40;15.07;;;;;;;;;;5072366;28;20517;-49
2023/02/21 07:13:57;;;;;;;26.83;12.38;;;;;;;;;;5072235;28;20409;-50
2023/02/21 07:16:23;;;;;;;26.55;11.52;;;;;;;;;;5071056;28;20055;-50
2023/02/21 07:18:49;;;;;;;35.88;13.80;;;;;;;;;;5072178;28;20052;-50
2023/02/21 07:21:15;;;;;;;41.00;13.70;;;;;;;;;;5072211;28;20032;-50
2023/02/21 07:23:44;;;;;;;34.08;12.40;;;;;;;;;;5072231;28;20118;-50
2023/02/21 07:26:10;;;;;;;34.88;14.25;;;;;;;;;;5072324;28;20120;-50
2023/02/21 07:28:35;;;;;;;27.25;12.40;;;;;;;;;;5072097;28;20360;-50
2023/02/21 07:31:01;;;;;;;29.80;12.90;;;;;;;;;;5070645;28;20040;-50
2023/02/21 07:33:26;;;;;;;31.60;13.68;;;;;;;;;;5071875;28;20071;-50
2023/02/21 07:35:52;;;;;;;29.83;11.90;;;;;;;;;;5071887;28;20032;-50
2023/02/21 07:38:19;;;;;;;31.98;12.48;;;;;;;;;;5071885;28;20025;-50
2023/02/21 07:40:44;;;;;;;38.00;13.30;;;;;;;;;;5070687;28;20036;-50
2023/02/21 07:43:09;;;;;;;35.00;14.38;;;;;;;;;;5070572;28;20023;-50
2023/02/21 07:45:35;;;;;;;33.25;12.68;;;;;;;;;;5071857;28;20040;-50
2023/02/21 07:48:01;;;;;;;34.35;13.60;;;;;;;;;;5071654;28;20037;-50
2023/02/21 07:50:27;;;;;;;32.25;13.32;;;;;;;;;;5071660;28;20028;-51
2023/02/21 07:52:52;;;;;;;37.97;12.77;;;;;;;;;;5070340;28;20024;-50
2023/02/21 07:55:18;;;;;;;24.75;12.43;;;;;;;;;;5071672;28;20063;-50
2023/02/21 07:57:44;;;;;;;38.22;15.18;;;;;;;;;;5071606;28;20031;-50
2023/02/21 08:00:10;;;;;;;31.38;12.90;;;;;;;;;;5071727;28;20495;-50
2023/02/21 08:02:38;;;;;;;27.85;12.55;;;;;;;;;;5071859;28;20024;-50
2023/02/21 08:05:04;;;;;;;23.35;11.23;;;;;;;;;;5071460;28;20097;-50
2023/02/21 08:07:30;;;;;;;28.63;13.52;;;;;;;;;;5070286;28;20467;-50
2023/02/21 08:09:56;;;;;;;38.60;16.40;;;;;;;;;;5071303;28;20098;-50
2023/02/21 08:12:21;;;;;;;37.08;16.10;;;;;;;;;;5071793;28;20048;-50
2023/02/21 08:14:47;;;;;;;33.45;13.95;;;;;;;;;;5071237;28;20033;-50
2023/02/21 08:17:13;;;;;;;31.77;13.15;;;;;;;;;;5071705;28;20097;-50
2023/02/21 08:19:38;;;;;;;32.17;15.60;;;;;;;;;;5071381;28;20029;-50
2023/02/21 08:22:04;;;;;;;32.45;14.45;;;;;;;;;;5071237;28;20048;-50
2023/02/21 08:24:30;;;;;;;42.13;16.73;;;;;;;;;;5071396;28;20029;-50
2023/02/21 08:26:56;;;;;;;80.90;39.85;;;;;;;;;;5070039;28;20012;-50
2023/02/21 08:29:21;;;;;;;47.83;19.35;;;;;;;;;;5071332;28;20054;-50
2023/02/21 08:31:47;;;;;;;36.03;15.32;;;;;;;;;;5071119;28;20483;-50
2023/02/21 08:34:13;;;;;;;30.42;13.85;;;;;;;;;;5071038;28;20135;-50
2023/02/21 08:36:40;;;;;;;38.75;12.93;;;;;;;;;;5071261;28;20035;-50
2023/02/21 08:39:06;;;;;;;28.88;13.07;;;;;;;;;;5071140;28;20079;-50
2023/02/21 08:41:41;;;;;;;36.42;14.13;;;;;;;;;;5069962;28;20020;-50
2023/02/21 08:44:06;;;;;;;43.65;14.52;;;;;;;;;;5069812;28;20033;-50
2023/02/21 08:46:32;;;;;;;31.60;13.27;;;;;;;;;;5069940;28;20024;-49
2023/02/21 08:48:58;;;;;;;25.75;12.70;;;;;;;;;;5069806;28;20407;-50
2023/02/21 08:51:25;;;;;;;24.60;12.45;;;;;;;;;;5071302;28;20021;-50
2023/02/21 08:53:50;;;;;;;28.42;13.27;;;;;;;;;;5070994;28;20547;-50
2023/02/21 08:56:19;;;;;;;19.10;10.90;;;;;;;;;;5071102;28;20019;-50
2023/02/21 08:58:45;;;;;;;27.00;12.98;;;;;;;;;;5071159;28;20040;-50
2023/02/21 09:01:10;;;;;;;24.25;10.60;;;;;;;;;;5071085;28;20021;-50
2023/02/21 09:03:36;;;;;;;26.50;11.88;;;;;;;;;;5071253;28;20037;-50
2023/02/21 09:06:02;;;;;;;27.45;13.90;;;;;;;;;;5070941;28;20012;-50
2023/02/21 09:08:29;;;;;;;21.45;11.00;;;;;;;;;;5070865;28;20530;-50
2023/02/21 09:10:59;;;;;;;24.77;12.90;;;;;;;;;;5070834;28;20455;-50
2023/02/21 09:13:25;;;;;;;31.33;13.02;;;;;;;;;;5070922;28;20029;-50
2023/02/21 09:15:51;;;;;;;33.88;13.52;;;;;;;;;;5070802;28;20021;-50
2023/02/21 09:18:17;;;;;;;23.60;11.85;;;;;;;;;;5070834;28;20052;-50
2023/02/21 09:20:44;;;;;;;24.27;11.50;;;;;;;;;;5071657;28;20111;-50
2023/02/21 09:23:10;;;;;;;28.55;12.20;;;;;;;;;;5074483;28;20028;-50
2023/02/21 09:25:36;;;;;;;24.10;11.00;;;;;;;;;;5074767;28;20489;-50
2023/02/21 09:28:01;;;;;;;24.45;12.60;;;;;;;;;;5074149;28;20509;-49
2023/02/21 09:30:28;;;;;;;30.15;13.23;;;;;;;;;;5074575;28;20017;-50
2023/02/21 09:32:54;;;;;;;26.60;10.80;;;;;;;;;;5074256;28;20047;-50
2023/02/21 09:35:20;;;;;;;42.40;13.43;;;;;;;;;;5074366;28;20044;-50
2023/02/21 09:37:46;;;;;;;38.45;16.75;;;;;;;;;;5074151;28;20399;-50
2023/02/21 09:40:15;;;;;;;31.48;14.18;;;;;;;;;;5074117;28;20017;-50
2023/02/21 09:42:41;;;;;;;22.92;10.95;;;;;;;;;;5074227;28;20029;-50
2023/02/21 09:45:21;;;;;;;29.50;12.48;;;;;;;;;;5073947;28;20013;-50
2023/02/21 09:47:52;;;;;;;26.17;12.65;;;;;;;;;;5073931;28;20036;-50
2023/02/21 09:50:19;;;;;;;39.15;12.50;;;;;;;;;;5073980;28;20028;-50
2023/02/21 09:52:45;;;;;;;40.22;16.40;;;;;;;;;;5073971;28;20020;-50
2023/02/21 09:55:26;;;;;;;30.48;13.70;;;;;;;;;;5074126;28;20086;-50
2023/02/21 09:57:52;;;;;;;35.15;12.18;;;;;;;;;;5073772;28;20028;-50
2023/02/21 10:00:20;;;;;;;33.65;13.43;;;;;;;;;;5072534;28;20024;-50
2023/02/21 10:03:18;;;;;;;32.95;13.43;;;;;;;;;;5073649;28;20039;-50
2023/02/21 10:05:45;;;;;;;26.70;13.48;;;;;;;;;;5029049;28;20040;-50
2023/02/21 10:08:11;;;;;;;28.40;11.27;;;;;;;;;;5073704;28;20028;-50
2023/02/21 10:10:47;;;;;;;26.33;13.15;;;;;;;;;;5072409;28;20558;-50
2023/02/21 10:13:13;;;;;;;38.80;13.98;;;;;;;;;;5073563;28;20033;-50
2023/02/21 10:15:42;;;;;;;25.70;11.75;;;;;;;;;;5073642;28;20066;-50
2023/02/21 10:18:08;;;;;;;40.65;13.77;;;;;;;;;;5073403;28;20024;-50
2023/02/21 10:20:33;;;;;;;36.53;12.85;;;;;;;;;;5073425;28;20070;-50
2023/02/21 10:23:00;;;;;;;34.70;14.88;;;;;;;;;;5073290;28;20103;-50
2023/02/21 10:25:28;;;;;;;35.95;13.77;;;;;;;;;;5073422;28;20020;-50
2023/02/21 10:27:54;;;;;;;31.05;15.50;;;;;;;;;;5073136;28;20094;-50
2023/02/21 10:30:25;;;;;;;31.30;13.52;;;;;;;;;;5073182;28;20017;-50
2023/02/21 10:32:52;;;;;;;30.90;12.27;;;;;;;;;;5072870;28;20093;-50
2023/02/21 10:35:18;;;;;;;38.75;13.50;;;;;;;;;;5073189;28;20115;-50
2023/02/21 10:37:46;;;;;;;36.97;14.60;;;;;;;;;;5071844;28;20120;-50
2023/02/21 10:40:30;;;;;;;35.97;12.63;;;;;;;;;;5073022;28;20463;-50
2023/02/21 10:43:00;;;;;;;29.65;11.93;;;;;;;;;;5072953;28;20056;-50
2023/02/21 10:45:32;;;;;;;35.58;16.52;;;;;;;;;;5072925;28;20112;-50
2023/02/21 10:48:05;;;;;;;29.42;14.52;;;;;;;;;;5071614;28;20111;-50
2023/02/21 10:50:42;;;;;;;32.65;13.57;;;;;;;;;;5072647;28;20058;-50
2023/02/21 10:53:21;;;;;;;33.63;15.65;;;;;;;;;;5072681;28;20662;-50
2023/02/21 10:56:05;;;;;;;33.30;14.10;;;;;;;;;;5072724;28;20023;-50
2023/02/21 10:58:31;;;;;;;31.95;12.43;;;;;;;;;;5071451;28;20028;-50
2023/02/21 11:01:09;;;;;;;30.30;11.93;;;;;;;;;;5072510;28;20094;-50
2023/02/21 11:03:34;;;;;;;31.08;14.05;;;;;;;;;;5072664;28;20085;-50
2023/02/21 11:06:00;;;;;;;33.05;11.77;;;;;;;;;;5071201;28;20429;-50
2023/02/21 11:08:52;;;;;;;29.60;12.70;;;;;;;;;;5072423;28;20036;-50
2023/02/21 11:11:50;;;;;;;27.05;14.65;;;;;;;;;;5064915;28;20051;-50
2023/02/21 11:14:16;;;;;;;36.50;14.70;;;;;;;;;;5027933;28;20055;-50
2023/02/21 11:16:42;;;;;;;42.45;14.20;;;;;;;;;;5071131;28;20470;-50
2023/02/21 11:19:11;;;;;;;34.65;15.18;;;;;;;;;;5072141;28;20087;-50
2023/02/21 11:21:36;;;;;;;36.70;14.30;;;;;;;;;;5072477;28;20032;-50
2023/02/21 11:24:04;;;;;;;28.95;12.73;;;;;;;;;;5072082;28;20036;-50
2023/02/21 11:26:34;;;;;;;40.53;14.25;;;;;;;;;;5072160;28;20035;-50
2023/02/21 11:29:06;;;;;;;37.78;13.52;;;;;;;;;;5072146;28;20036;-50
2023/02/21 11:31:32;;;;;;;37.63;14.67;;;;;;;;;;5072324;28;20055;-50
2023/02/21 11:33:59;;;;;;;34.40;14.48;;;;;;;;;;5071779;28;20076;-51
2023/02/21 11:36:29;;;;;;;38.28;15.07;;;;;;;;;;5071907;28;20063;-50
2023/02/21 11:38:59;;;;;;;34.97;14.85;;;;;;;;;;5071804;28;20028;-51
2023/02/21 11:41:30;;;;;;;32.90;13.38;;;;;;;;;;5071785;28;20028;-50
2023/02/21 11:43:58;;;;;;;45.47;15.65;;;;;;;;;;5053731;28;20139;-50
2023/02/21 11:46:30;;;;;;;38.83;15.57;;;;;;;;;;5071712;28;20032;-50
2023/02/21 11:48:55;;;;;;;44.53;16.13;;;;;;;;;;5071592;28;20486;-50
2023/02/21 11:51:32;;;;;;;38.30;14.45;;;;;;;;;;5071945;28;20081;-50
2023/02/21 11:53:58;;;;;;;31.80;15.55;;;;;;;;;;5071723;28;20123;-50
2023/02/21 11:56:43;;;;;;;40.50;16.45;;;;;;;;;;5071950;28;20099;-50
2023/02/21 11:59:18;;;;;;;35.42;13.45;;;;;;;;;;5071527;28;20029;-50
2023/02/21 12:01:48;;;;;;;34.35;14.32;;;;;;;;;;5070297;28;20494;-50
2023/02/21 12:04:21;;;;;;;43.15;17.45;;;;;;;;;;5070456;28;20047;-50
2023/02/21 12:06:50;;;;;;;36.20;14.25;;;;;;;;;;5070288;28;20513;-50
2023/02/21 12:09:24;;;;;;;31.98;15.32;;;;;;;;;;5071413;28;20032;-50
2023/02/21 12:11:49;;;;;;;44.30;16.90;;;;;;;;;;5071312;28;20109;-50
2023/02/21 12:14:15;;;;;;;39.60;16.48;;;;;;;;;;5071478;28;20055;-50
2023/02/21 12:16:58;;;;;;;59.05;17.63;;;;;;;;;;5071532;28;20107;-50
2023/02/21 12:19:43;;;;;;;40.95;14.82;;;;;;;;;;5071399;28;20028;-50
2023/02/21 12:22:27;;;;;;;42.17;17.55;;;;;;;;;;5070010;28;20024;-50
2023/02/21 12:25:04;;;;;;;45.90;16.33;;;;;;;;;;5070187;28;20033;-50
2023/02/21 12:27:30;;;;;;;36.33;15.93;;;;;;;;;;5071185;28;20052;-50
2023/02/21 12:29:58;;;;;;;43.85;15.00;;;;;;;;;;5069879;28;20016;-50
2023/02/21 12:32:34;;;;;;;38.17;13.45;;;;;;;;;;5071123;28;20036;-50
2023/02/21 12:35:00;;;;;;;47.53;17.05;;;;;;;;;;5071263;28;20090;-50
2023/02/21 12:37:44;;;;;;;46.33;17.85;;;;;;;;;;5070029;28;20507;-50
2023/02/21 12:40:17;;;;;;;44.85;16.60;;;;;;;;;;5069874;28;20064;-50
2023/02/21 12:42:46;;;;;;;47.92;15.52;;;;;;;;;;5071460;28;20086;-50
2023/02/21 12:45:17;;;;;;;37.67;14.30;;;;;;;;;;5071345;28;20021;-50
2023/02/21 12:47:49;;;;;;;41.40;15.32;;;;;;;;;;5071393;28;20258;-50
2023/02/21 12:50:19;;;;;;;59.95;18.25;;;;;;;;;;5071118;28;20016;-50
2023/02/21 12:52:51;;;;;;;43.63;17.50;;;;;;;;;;5071152;28;20115;-50
2023/02/21 12:55:21;;;;;;;44.90;15.07;;;;;;;;;;5071587;28;20052;-51
2023/02/21 12:57:55;;;;;;;37.03;15.15;;;;;;;;;;5074944;28;20031;-50
2023/02/21 13:00:24;;;;;;;48.35;16.27;;;;;;;;;;5073673;28;20368;-50
2023/02/21 13:03:08;;;;;;;34.45;16.40;;;;;;;;;;5074761;28;20012;-50
2023/02/21 13:05:38;;;;;;;39.33;14.07;;;;;;;;;;5074926;28;20029;-51
2023/02/21 13:08:09;;;;;;;52.78;15.98;;;;;;;;;;5074659;28;20036;-50
2023/02/21 13:10:44;;;;;;;35.10;14.02;;;;;;;;;;5073427;28;20489;-50
2023/02/21 13:13:14;;;;;;;43.55;15.73;;;;;;;;;;5074704;28;20041;-50
2023/02/21 13:15:41;;;;;;;39.00;17.08;;;;;;;;;;5074626;28;20037;-50
2023/02/21 13:18:15;;;;;;;37.00;14.98;;;;;;;;;;5073572;28;20031;-50
2023/02/21 13:20:46;;;;;;;37.33;14.48;;;;;;;;;;5074455;28;20078;-50
2023/02/21 13:26:49;;;;;;;36.30;14.50;;;;;;;;;;5074446;28;20039;-50
2023/02/21 13:29:18;;;;;;;37.78;17.35;;;;;;;;;;5030938;28;20521;-50
2023/02/21 13:31:44;;;;;;;36.10;15.77;;;;;;;;;;5074420;28;20075;-50
2023/02/21 13:34:11;;;;;;;32.28;12.43;;;;;;;;;;5074108;28;20123;-50
2023/02/21 13:36:36;;;;;;;43.58;16.65;;;;;;;;;;5074344;28;20032;-50
2023/02/21 13:39:08;;;;;;;43.88;18.35;;;;;;;;;;5074126;28;20433;-50
2023/02/21 13:41:35;;;;;;;34.47;15.23;;;;;;;;;;5074162;28;20040;-50
2023/02/21 13:44:06;;;;;;;39.95;17.13;;;;;;;;;;5074043;28;20024;-50
2023/02/21 13:46:35;;;;;;;44.38;14.48;;;;;;;;;;5074033;28;20028;-50
2023/02/21 13:49:20;;;;;;;39.63;14.73;;;;;;;;;;5073832;28;20123;-50
2023/02/21 13:51:51;;;;;;;36.22;15.98;;;;;;;;;;5073953;28;20036;-50
2023/02/21 13:54:23;;;;;;;40.20;14.57;;;;;;;;;;5074012;28;20463;-50
2023/02/21 13:56:50;;;;;;;45.60;14.25;;;;;;;;;;5073896;28;20033;-50
2023/02/21 13:59:36;;;;;;;41.97;17.48;;;;;;;;;;5074121;28;20410;-50
2023/02/21 14:02:21;;;;;;;42.97;17.67;;;;;;;;;;5073440;28;20037;-50
2023/02/21 14:04:54;;;;;;;44.20;16.60;;;;;;;;;;5074026;28;20150;-50
2023/02/21 14:07:38;;;;;;;46.78;17.77;;;;;;;;;;5071991;28;20028;-51
2023/02/21 14:10:03;;;;;;;50.58;19.65;;;;;;;;;;5073551;28;20384;-50
2023/02/21 14:12:30;;;;;;;42.63;14.82;;;;;;;;;;5073866;28;20031;-50
2023/02/21 14:15:07;;;;;;;39.17;16.80;;;;;;;;;;5073481;28;20025;-50
2023/02/21 14:17:35;;;;;;;44.03;17.75;;;;;;;;;;5072375;28;20717;-50
2023/02/21 14:20:02;;;;;;;51.08;18.33;;;;;;;;;;5073396;28;20116;-50
2023/02/21 14:22:31;;;;;;;53.63;20.38;;;;;;;;;;5073509;28;20060;-51
2023/02/21 14:25:05;;;;;;;47.40;17.55;;;;;;;;;;5071975;28;20044;-51
2023/02/21 14:27:32;;;;;;;38.70;17.60;;;;;;;;;;5073246;28;20039;-50
2023/02/21 14:29:58;;;;;;;40.65;16.50;;;;;;;;;;5073199;28;20077;-50
2023/02/21 14:32:42;;;;;;;40.15;17.20;;;;;;;;;;5073091;28;20044;-51
2023/02/21 14:35:17;;;;;;;40.28;17.00;;;;;;;;;;5073121;28;20044;-50
2023/02/21 14:38:01;;;;;;;46.28;16.63;;;;;;;;;;5073162;28;20028;-50
2023/02/21 14:40:45;;;;;;;43.80;17.80;;;;;;;;;;5073001;28;20105;-50
2023/02/21 14:43:13;;;;;;;44.28;18.20;;;;;;;;;;5072075;28;20028;-50
2023/02/21 14:45:59;;;;;;;38.92;18.63;;;;;;;;;;5071705;28;20376;-50
2023/02/21 14:48:41;;;;;;;49.88;19.58;;;;;;;;;;5072834;28;20032;-50
2023/02/21 14:51:19;;;;;;;45.97;17.90;;;;;;;;;;5072834;28;20111;-50
2023/02/21 14:54:05;;;;;;;46.63;17.77;;;;;;;;;;5071557;28;20043;-50
2023/02/21 14:56:45;;;;;;;49.25;18.13;;;;;;;;;;5072712;28;20036;-50
2023/02/21 14:59:11;;;;;;;43.20;18.45;;;;;;;;;;5072570;28;20024;-50
2023/02/21 15:01:59;;;;;;;52.60;18.73;;;;;;;;;;5072642;28;20086;-50
2023/02/21 15:04:31;;;;;;;54.40;20.75;;;;;;;;;;5072690;28;20038;-50
2023/02/21 15:07:00;;;;;;;38.67;18.23;;;;;;;;;;5072403;28;20510;-50
2023/02/21 15:09:26;;;;;;;49.33;16.60;;;;;;;;;;5072653;28;20093;-50
2023/02/21 15:11:52;;;;;;;49.50;17.75;;;;;;;;;;5071025;28;20029;-50
2023/02/21 15:14:28;;;;;;;49.83;19.50;;;;;;;;;;5072487;28;20115;-50
2023/02/21 15:16:56;;;;;;;45.80;18.35;;;;;;;;;;5072280;28;20028;-50
2023/02/21 15:19:29;;;;;;;49.08;18.70;;;;;;;;;;5071818;28;20036;-50
2023/02/21 15:22:11;;;;;;;53.67;17.35;;;;;;;;;;5072420;28;20107;-50
2023/02/21 15:24:37;;;;;;;42.25;15.60;;;;;;;;;;5072207;28;20029;-50
2023/02/21 15:27:10;;;;;;;42.67;18.20;;;;;;;;;;5072293;28;20056;-50
2023/02/21 15:29:35;;;;;;;49.85;18.52;;;;;;;;;;5072066;28;20067;-50
2023/02/21 15:32:02;;;;;;;48.28;18.35;;;;;;;;;;5072025;28;20017;-50
2023/02/21 15:34:32;;;;;;;47.30;17.52;;;;;;;;;;5071822;28;20055;-50
2023/02/21 15:37:00;;;;;;;48.08;15.73;;;;;;;;;;5071897;28;20502;-51
2023/02/21 15:39:35;;;;;;;46.70;16.88;;;;;;;;;;5071818;28;20024;-50
2023/02/21 15:42:02;;;;;;;39.47;17.83;;;;;;;;;;5070538;28;20391;-50
2023/02/21 15:44:29;;;;;;;45.03;17.23;;;;;;;;;;5072174;28;20021;-50
2023/02/21 15:46:58;;;;;;;52.20;20.33;;;;;;;;;;5071812;28;20066;-50
2023/02/21 15:49:29;;;;;;;51.90;20.63;;;;;;;;;;5071663;28;20487;-50
2023/02/21 15:51:55;;;;;;;45.17;17.42;;;;;;;;;;5071699;28;20491;-50
2023/02/21 15:54:30;;;;;;;52.35;17.65;;;;;;;;;;5071791;28;20020;-50
2023/02/21 15:57:18;;;;;;;53.20;18.38;;;;;;;;;;5070287;28;20036;-50
2023/02/21 15:59:44;;;;;;;44.70;19.73;;;;;;;;;;5071543;28;20111;-50
2023/02/21 16:02:10;;;;;;;42.28;17.83;;;;;;;;;;5071547;28;20531;-49
2023/02/21 16:04:37;;;;;;;50.78;18.20;;;;;;;;;;5071658;28;20091;-50
2023/02/21 16:07:04;;;;;;;41.97;17.27;;;;;;;;;;5071478;28;20463;-50
2023/02/21 16:09:33;;;;;;;40.03;17.48;;;;;;;;;;5070110;28;20044;-50
2023/02/21 16:12:07;;;;;;;49.30;17.23;;;;;;;;;;5070144;28;20519;-50
2023/02/21 16:14:33;;;;;;;51.72;18.55;;;;;;;;;;5071579;28;20032;-50
2023/02/21 16:17:19;;;;;;;43.78;18.90;;;;;;;;;;5071216;28;20093;-50
2023/02/21 16:19:46;;;;;;;52.28;19.23;;;;;;;;;;5071211;28;20382;-50
2023/02/21 16:22:11;;;;;;;41.95;17.25;;;;;;;;;;5071339;28;20216;-50
2023/02/21 16:24:38;;;;;;;43.97;16.67;;;;;;;;;;5071381;28;20028;-50
2023/02/21 16:27:09;;;;;;;40.42;18.27;;;;;;;;;;5071654;28;20115;-50
2023/02/21 16:29:35;;;;;;;45.90;15.40;;;;;;;;;;5072709;28;20044;-50
2023/02/21 16:32:00;;;;;;;43.20;18.80;;;;;;;;;;5078216;28;20021;-51
2023/02/21 16:34:27;;;;;;;35.28;15.27;;;;;;;;;;5077843;28;20514;-50
2023/02/21 16:36:59;;;;;;;36.10;16.33;;;;;;;;;;5077922;28;20032;-50
2023/02/21 16:39:25;;;;;;;38.97;16.15;;;;;;;;;;5077829;28;20032;-50
2023/02/21 16:41:51;;;;;;;38.00;16.02;;;;;;;;;;5078157;28;20074;-50
2023/02/21 16:44:16;;;;;;;37.40;17.10;;;;;;;;;;5077831;28;20036;-50
2023/02/21 16:46:42;;;;;;;42.22;17.90;;;;;;;;;;5078161;28;20013;-50
2023/02/21 16:49:09;;;;;;;47.05;16.80;;;;;;;;;;5077824;28;20578;-50